Time;durP1;ratioP1;P1;durP2;ratioP2;P2;SDS_P1;SDS_P2;PMS_P1;PMS_P2;Temp;Humidity;BMP_temperature;BMP_pressure;BME280_temperature;BME280_humidity;BME280_pressure;Samples;Min_cycle;Max_cycle;Signal;HPM_P1;HPM_P2
2023/07/02 00:02:24;;;;;;;3.05;2.10;;;;;;;;;;5081276;28;20647;-73
2023/07/02 00:04:49;;;;;;;7.95;2.25;;;;;;;;;;5084145;28;20199;-73
2023/07/02 00:07:15;;;;;;;3.20;2.38;;;;;;;;;;5079072;28;20188;-73
2023/07/02 00:09:40;;;;;;;4.85;2.60;;;;;;;;;;5082625;28;20208;-72
2023/07/02 00:12:06;;;;;;;5.20;2.60;;;;;;;;;;5086793;28;20184;-73
2023/07/02 00:14:32;;;;;;;2.90;2.63;;;;;;;;;;5076158;28;20862;-73
2023/07/02 00:16:58;;;;;;;5.13;2.80;;;;;;;;;;5076703;28;20187;-73
2023/07/02 00:19:23;;;;;;;4.70;2.58;;;;;;;;;;5077763;28;20177;-74
2023/07/02 00:21:49;;;;;;;7.05;3.03;;;;;;;;;;5078899;28;20585;-73
2023/07/02 00:24:15;;;;;;;4.68;2.55;;;;;;;;;;5080221;28;20267;-73
2023/07/02 00:26:41;;;;;;;4.28;2.50;;;;;;;;;;5082755;28;20734;-73
2023/07/02 00:29:08;;;;;;;4.70;2.60;;;;;;;;;;5066706;28;20293;-73
2023/07/02 00:31:33;;;;;;;6.85;2.65;;;;;;;;;;5070907;28;20215;-73
2023/07/02 00:34:00;;;;;;;4.22;2.83;;;;;;;;;;5074145;28;20220;-73
2023/07/02 00:36:27;;;;;;;5.68;2.67;;;;;;;;;;5084338;28;20265;-73
2023/07/02 00:38:52;;;;;;;5.50;2.67;;;;;;;;;;5077349;28;20189;-73
2023/07/02 00:41:18;;;;;;;3.47;2.90;;;;;;;;;;5071157;28;20289;-74
2023/07/02 00:43:43;;;;;;;3.60;2.50;;;;;;;;;;5075416;28;20478;-74
2023/07/02 00:46:17;;;;;;;4.70;3.03;;;;;;;;;;5081628;28;20187;-73
2023/07/02 00:48:43;;;;;;;3.95;3.22;;;;;;;;;;5072107;28;20585;-74
2023/07/02 00:51:10;;;;;;;4.78;2.70;;;;;;;;;;5067876;28;20189;-73
2023/07/02 00:53:35;;;;;;;4.57;2.70;;;;;;;;;;5079508;28;20199;-73
2023/07/02 00:56:01;;;;;;;3.20;2.50;;;;;;;;;;5077952;28;20188;-73
2023/07/02 00:58:26;;;;;;;4.95;2.75;;;;;;;;;;5079949;28;20184;-73
2023/07/02 01:00:52;;;;;;;4.18;3.10;;;;;;;;;;5071804;28;20209;-73
2023/07/02 01:03:18;;;;;;;3.70;2.75;;;;;;;;;;5084250;28;20762;-73
2023/07/02 01:05:43;;;;;;;10.48;3.20;;;;;;;;;;5072413;28;20389;-73
2023/07/02 01:08:10;;;;;;;3.83;2.40;;;;;;;;;;5082624;28;20865;-73
2023/07/02 01:10:35;;;;;;;6.13;2.70;;;;;;;;;;5077760;28;20191;-73
2023/07/02 01:13:09;;;;;;;5.20;3.03;;;;;;;;;;5089154;28;20195;-74
2023/07/02 01:15:36;;;;;;;5.63;3.17;;;;;;;;;;5077341;28;20180;-73
2023/07/02 01:18:03;;;;;;;5.97;2.88;;;;;;;;;;5081723;28;20283;-73
2023/07/02 01:20:30;;;;;;;4.35;2.75;;;;;;;;;;5085393;28;20196;-74
2023/07/02 01:22:56;;;;;;;8.80;3.08;;;;;;;;;;5079331;28;20680;-73
2023/07/02 01:25:24;;;;;;;9.70;3.10;;;;;;;;;;5084862;28;20188;-73
2023/07/02 01:27:50;;;;;;;6.63;3.17;;;;;;;;;;5080271;28;20200;-73
2023/07/02 01:30:15;;;;;;;5.38;2.92;;;;;;;;;;5085129;28;20667;-73
2023/07/02 01:32:41;;;;;;;10.00;3.88;;;;;;;;;;5088204;28;20202;-74
2023/07/02 01:35:08;;;;;;;8.85;3.38;;;;;;;;;;5079312;28;20219;-73
2023/07/02 01:37:37;;;;;;;5.93;3.22;;;;;;;;;;5084356;28;20640;-73
2023/07/02 01:40:06;;;;;;;4.88;3.60;;;;;;;;;;5090743;28;20184;-73
2023/07/02 01:42:31;;;;;;;5.38;3.40;;;;;;;;;;5090887;28;20906;-73
2023/07/02 01:44:57;;;;;;;4.40;3.47;;;;;;;;;;5084209;28;20242;-73
2023/07/02 01:47:22;;;;;;;7.78;3.17;;;;;;;;;;5069012;28;20192;-73
2023/07/02 01:49:49;;;;;;;5.47;3.10;;;;;;;;;;5084940;28;20576;-73
2023/07/02 01:52:15;;;;;;;5.70;3.40;;;;;;;;;;5087121;28;20206;-73
2023/07/02 01:54:41;;;;;;;8.07;3.70;;;;;;;;;;5079404;28;20184;-74
2023/07/02 01:57:06;;;;;;;5.97;3.47;;;;;;;;;;5089142;28;20211;-73
2023/07/02 01:59:31;;;;;;;9.13;4.00;;;;;;;;;;5087415;28;20215;-73
2023/07/02 02:01:57;;;;;;;6.82;3.72;;;;;;;;;;5086962;28;20207;-73
2023/07/02 02:04:22;;;;;;;8.57;3.63;;;;;;;;;;5083477;28;20192;-74
2023/07/02 02:06:48;;;;;;;10.57;4.20;;;;;;;;;;5077448;28;20199;-73
2023/07/02 02:09:13;;;;;;;8.43;4.10;;;;;;;;;;5080861;28;20212;-74
2023/07/02 02:11:41;;;;;;;7.80;3.80;;;;;;;;;;5080484;28;20292;-73
2023/07/02 02:14:07;;;;;;;7.88;3.80;;;;;;;;;;5081979;28;20559;-73
2023/07/02 02:16:33;;;;;;;6.75;3.65;;;;;;;;;;5079293;28;20191;-73
2023/07/02 02:18:59;;;;;;;10.25;4.47;;;;;;;;;;5086458;28;20226;-74
2023/07/02 02:21:25;;;;;;;10.63;4.10;;;;;;;;;;5083463;28;20188;-73
2023/07/02 02:23:51;;;;;;;13.02;4.82;;;;;;;;;;5079621;28;20453;-73
2023/07/02 02:26:16;;;;;;;11.13;5.03;;;;;;;;;;5077293;28;20184;-72
2023/07/02 02:28:42;;;;;;;14.60;5.03;;;;;;;;;;5087468;28;20204;-73
2023/07/02 02:31:08;;;;;;;9.20;4.50;;;;;;;;;;5071710;28;20729;-73
2023/07/02 02:33:35;;;;;;;14.65;5.10;;;;;;;;;;5083242;28;20183;-72
2023/07/02 02:36:00;;;;;;;20.23;5.50;;;;;;;;;;5087789;28;20292;-73
2023/07/02 02:38:26;;;;;;;12.55;5.15;;;;;;;;;;5082811;28;20295;-73
2023/07/02 02:40:51;;;;;;;18.77;5.68;;;;;;;;;;5084310;28;20319;-70
2023/07/02 02:43:17;;;;;;;16.88;5.50;;;;;;;;;;5089162;28;20196;-73
2023/07/02 02:45:42;;;;;;;9.73;4.70;;;;;;;;;;5083277;28;20612;-73
2023/07/02 02:48:08;;;;;;;15.52;5.05;;;;;;;;;;5080422;28;20197;-73
2023/07/02 02:50:33;;;;;;;18.10;5.85;;;;;;;;;;5069069;28;20184;-72
2023/07/02 02:52:58;;;;;;;15.85;6.07;;;;;;;;;;5076576;28;20206;-73
2023/07/02 02:55:24;;;;;;;19.60;5.85;;;;;;;;;;5075919;28;20185;-72
2023/07/02 02:57:49;;;;;;;17.95;6.13;;;;;;;;;;5071243;28;20192;-72
2023/07/02 03:00:16;;;;;;;15.73;6.32;;;;;;;;;;5081952;28;20180;-73
2023/07/02 03:02:41;;;;;;;17.58;6.32;;;;;;;;;;5083738;28;20550;-72
2023/07/02 03:05:07;;;;;;;17.05;6.50;;;;;;;;;;5087355;28;20195;-71
2023/07/02 03:07:33;;;;;;;16.92;6.43;;;;;;;;;;5084261;28;20257;-72
2023/07/02 03:09:58;;;;;;;14.93;6.65;;;;;;;;;;5086407;28;20211;-72
2023/07/02 03:12:26;;;;;;;20.17;6.50;;;;;;;;;;5082694;28;20214;-72
2023/07/02 03:14:54;;;;;;;17.08;6.53;;;;;;;;;;5073435;28;20199;-72
2023/07/02 03:17:20;;;;;;;21.52;7.20;;;;;;;;;;5083457;28;20257;-72
2023/07/02 03:19:46;;;;;;;14.10;6.55;;;;;;;;;;5074123;28;20672;-72
2023/07/02 03:22:12;;;;;;;18.13;6.65;;;;;;;;;;5088817;28;20263;-72
2023/07/02 03:24:37;;;;;;;18.75;7.13;;;;;;;;;;5083964;28;20223;-73
2023/07/02 03:27:03;;;;;;;21.00;6.60;;;;;;;;;;5066716;28;20493;-73
2023/07/02 03:29:28;;;;;;;21.88;6.97;;;;;;;;;;5073242;28;20212;-72
2023/07/02 03:31:53;;;;;;;22.95;7.13;;;;;;;;;;5081732;28;20196;-73
2023/07/02 03:34:19;;;;;;;22.48;7.63;;;;;;;;;;5088530;28;20620;-73
2023/07/02 03:36:44;;;;;;;19.98;7.03;;;;;;;;;;5078633;28;20188;-73
2023/07/02 03:39:09;;;;;;;18.25;6.97;;;;;;;;;;5080239;28;20211;-73
2023/07/02 03:41:35;;;;;;;22.52;7.22;;;;;;;;;;5054190;28;20235;-73
2023/07/02 03:44:00;;;;;;;20.98;7.38;;;;;;;;;;5065340;28;20202;-72
2023/07/02 03:46:26;;;;;;;24.23;7.45;;;;;;;;;;5088148;28;20183;-72
2023/07/02 03:48:51;;;;;;;19.52;7.38;;;;;;;;;;5085287;28;20204;-72
2023/07/02 03:51:16;;;;;;;23.67;7.70;;;;;;;;;;5068366;28;20231;-72
2023/07/02 03:53:42;;;;;;;25.95;8.50;;;;;;;;;;5074213;28;20197;-72
2023/07/02 03:56:08;;;;;;;25.90;7.47;;;;;;;;;;5080522;28;20213;-72
2023/07/02 03:58:33;;;;;;;16.83;7.20;;;;;;;;;;5088548;28;20183;-73
2023/07/02 04:00:59;;;;;;;22.52;7.72;;;;;;;;;;5080726;28;20555;-73
2023/07/02 04:03:24;;;;;;;22.80;7.13;;;;;;;;;;5074529;28;20195;-72
2023/07/02 04:05:50;;;;;;;18.40;7.30;;;;;;;;;;5079926;28;20607;-72
2023/07/02 04:08:15;;;;;;;19.95;7.38;;;;;;;;;;5084059;28;20187;-72
2023/07/02 04:10:41;;;;;;;16.05;6.57;;;;;;;;;;5082013;28;20241;-72
2023/07/02 04:13:07;;;;;;;20.58;7.55;;;;;;;;;;5073106;28;20184;-72
2023/07/02 04:15:32;;;;;;;21.23;7.38;;;;;;;;;;5076295;28;20185;-73
2023/07/02 04:17:57;;;;;;;16.20;7.13;;;;;;;;;;5077276;28;20319;-72
2023/07/02 04:20:23;;;;;;;15.23;6.70;;;;;;;;;;5076738;28;20325;-72
2023/07/02 04:22:48;;;;;;;16.85;7.07;;;;;;;;;;5076635;28;20192;-73
2023/07/02 04:25:17;;;;;;;19.42;7.13;;;;;;;;;;5079308;28;20192;-73
2023/07/02 04:27:44;;;;;;;20.35;7.45;;;;;;;;;;5069561;28;20547;-73
2023/07/02 04:30:10;;;;;;;14.95;5.97;;;;;;;;;;5081495;28;20207;-72
2023/07/02 04:32:36;;;;;;;21.70;7.03;;;;;;;;;;5088453;28;20318;-72
2023/07/02 04:35:02;;;;;;;19.75;7.55;;;;;;;;;;5081766;28;20192;-72
2023/07/02 04:37:28;;;;;;;18.92;7.07;;;;;;;;;;5082947;28;20211;-72
2023/07/02 04:39:54;;;;;;;19.17;7.90;;;;;;;;;;5085061;28;20551;-72
2023/07/02 04:42:19;;;;;;;18.75;7.35;;;;;;;;;;5076274;28;20225;-72
2023/07/02 04:44:44;;;;;;;24.20;7.60;;;;;;;;;;5080000;28;20262;-73
2023/07/02 04:47:11;;;;;;;16.23;7.00;;;;;;;;;;5082705;28;20670;-70
2023/07/02 04:49:36;;;;;;;19.75;6.78;;;;;;;;;;5081867;28;20571;-72
2023/07/02 04:52:02;;;;;;;19.40;7.57;;;;;;;;;;5062056;28;20180;-72
2023/07/02 04:54:27;;;;;;;16.90;6.80;;;;;;;;;;5080777;28;20192;-73
2023/07/02 04:56:53;;;;;;;20.80;7.57;;;;;;;;;;5081394;28;20192;-72
2023/07/02 04:59:20;;;;;;;17.42;7.78;;;;;;;;;;5086809;28;20191;-72
2023/07/02 05:01:46;;;;;;;18.77;7.47;;;;;;;;;;5088399;28;20211;-72
2023/07/02 05:04:11;;;;;;;16.73;7.18;;;;;;;;;;5087345;28;20245;-72
2023/07/02 05:06:37;;;;;;;22.45;8.45;;;;;;;;;;5089704;28;20271;-72
2023/07/02 05:09:03;;;;;;;18.00;7.28;;;;;;;;;;5079597;28;20246;-72
2023/07/02 05:11:28;;;;;;;21.52;7.78;;;;;;;;;;5089503;28;20272;-73
2023/07/02 05:13:53;;;;;;;22.55;8.07;;;;;;;;;;5091779;28;20222;-72
2023/07/02 05:16:19;;;;;;;18.80;7.85;;;;;;;;;;5084018;28;20523;-72
2023/07/02 05:18:44;;;;;;;19.52;7.75;;;;;;;;;;5077311;28;20176;-73
2023/07/02 05:21:10;;;;;;;19.25;7.28;;;;;;;;;;5079475;28;20240;-72
2023/07/02 05:23:36;;;;;;;20.40;7.22;;;;;;;;;;5078481;28;20482;-73
2023/07/02 05:26:02;;;;;;;22.83;8.18;;;;;;;;;;5092134;28;20195;-71
2023/07/02 05:28:27;;;;;;;22.90;8.63;;;;;;;;;;5089493;28;20213;-73
2023/07/02 05:30:52;;;;;;;19.15;7.75;;;;;;;;;;5084590;28;20678;-72
2023/07/02 05:33:18;;;;;;;20.35;8.15;;;;;;;;;;5071707;28;20188;-73
2023/07/02 05:35:45;;;;;;;26.35;7.60;;;;;;;;;;5080084;28;20686;-73
2023/07/02 05:38:10;;;;;;;22.73;7.60;;;;;;;;;;5069123;28;20187;-72
2023/07/02 05:40:36;;;;;;;22.05;7.57;;;;;;;;;;5075790;28;20626;-72
2023/07/02 05:43:01;;;;;;;22.95;7.93;;;;;;;;;;5060818;28;20215;-73
2023/07/02 05:45:27;;;;;;;22.90;8.18;;;;;;;;;;5082678;28;20238;-73
2023/07/02 05:47:52;;;;;;;23.52;9.20;;;;;;;;;;5077050;28;20249;-72
2023/07/02 05:50:18;;;;;;;24.27;8.02;;;;;;;;;;5077011;28;20249;-72
2023/07/02 05:52:43;;;;;;;22.35;8.38;;;;;;;;;;5083028;28;20398;-73
2023/07/02 05:55:10;;;;;;;21.98;8.05;;;;;;;;;;5083477;28;20933;-72
2023/07/02 05:57:36;;;;;;;25.33;8.55;;;;;;;;;;5079230;28;20192;-73
2023/07/02 06:00:04;;;;;;;24.38;8.75;;;;;;;;;;5072832;28;20655;-73
2023/07/02 06:02:29;;;;;;;22.15;8.23;;;;;;;;;;5079417;28;20721;-73
2023/07/02 06:04:54;;;;;;;24.45;7.93;;;;;;;;;;5083120;28;20258;-73
2023/07/02 06:07:20;;;;;;;24.25;8.48;;;;;;;;;;5080244;28;20664;-74
2023/07/02 06:09:45;;;;;;;23.25;8.75;;;;;;;;;;5073587;28;20738;-73
2023/07/02 06:12:11;;;;;;;17.98;7.55;;;;;;;;;;5084927;28;20196;-74
2023/07/02 06:14:36;;;;;;;21.80;8.40;;;;;;;;;;5082950;28;20192;-73
2023/07/02 06:17:05;;;;;;;25.65;8.85;;;;;;;;;;5084995;28;20221;-73
2023/07/02 06:19:30;;;;;;;20.88;8.30;;;;;;;;;;5080513;28;20481;-73
2023/07/02 06:21:56;;;;;;;23.65;7.93;;;;;;;;;;5086014;28;20569;-72
2023/07/02 06:24:21;;;;;;;22.10;8.60;;;;;;;;;;5075313;28;20184;-70
2023/07/02 06:26:47;;;;;;;23.17;8.10;;;;;;;;;;5079914;28;20241;-73
2023/07/02 06:29:12;;;;;;;25.42;7.75;;;;;;;;;;5086093;28;20204;-71
2023/07/02 06:31:37;;;;;;;54.33;9.63;;;;;;;;;;5086717;28;20194;-72
2023/07/02 06:34:03;;;;;;;24.70;7.80;;;;;;;;;;5077796;28;20193;-72
2023/07/02 06:36:28;;;;;;;25.25;8.18;;;;;;;;;;5076750;28;20279;-72
2023/07/02 06:38:54;;;;;;;27.75;8.88;;;;;;;;;;5074520;28;20199;-69
2023/07/02 06:41:19;;;;;;;27.42;8.55;;;;;;;;;;5080512;28;20231;-71
2023/07/02 06:43:44;;;;;;;25.50;8.63;;;;;;;;;;5079901;28;20195;-71
2023/07/02 06:46:11;;;;;;;23.75;7.53;;;;;;;;;;5085273;28;20614;-72
2023/07/02 06:48:36;;;;;;;22.90;8.35;;;;;;;;;;5085441;28;20291;-72
2023/07/02 06:51:02;;;;;;;22.08;8.52;;;;;;;;;;5081375;28;20326;-71
2023/07/02 06:53:27;;;;;;;22.08;7.88;;;;;;;;;;5080262;28;20520;-71
2023/07/02 06:55:53;;;;;;;24.45;7.88;;;;;;;;;;5074396;28;20595;-72
2023/07/02 06:58:18;;;;;;;20.20;8.20;;;;;;;;;;5073998;28;20188;-72
2023/07/02 07:00:43;;;;;;;22.33;7.43;;;;;;;;;;5083148;28;20200;-70
2023/07/02 07:03:09;;;;;;;22.58;7.88;;;;;;;;;;5079055;28;20669;-72
2023/07/02 07:05:34;;;;;;;27.23;9.07;;;;;;;;;;5074507;28;20216;-72
2023/07/02 07:08:03;;;;;;;25.35;8.13;;;;;;;;;;5077438;28;20266;-72
2023/07/02 07:10:33;;;;;;;25.77;8.85;;;;;;;;;;5082217;28;20821;-72
2023/07/02 07:12:59;;;;;;;23.90;8.10;;;;;;;;;;5081392;28;20204;-72
2023/07/02 07:15:24;;;;;;;23.58;8.20;;;;;;;;;;5081256;28;20691;-70
2023/07/02 07:17:50;;;;;;;19.15;7.57;;;;;;;;;;5073681;28;20522;-72
2023/07/02 07:20:15;;;;;;;18.85;8.35;;;;;;;;;;5081508;28;20193;-72
2023/07/02 07:22:40;;;;;;;24.10;7.93;;;;;;;;;;5081981;28;20188;-73
2023/07/02 07:25:07;;;;;;;23.85;7.78;;;;;;;;;;5069716;28;20197;-70
2023/07/02 07:27:32;;;;;;;23.63;8.70;;;;;;;;;;5080630;28;20200;-72
2023/07/02 07:29:57;;;;;;;20.88;7.80;;;;;;;;;;5087926;28;20220;-70
2023/07/02 07:32:23;;;;;;;21.67;8.10;;;;;;;;;;5080980;28;20196;-68
2023/07/02 07:34:48;;;;;;;21.58;8.02;;;;;;;;;;5073074;28;20561;-70
2023/07/02 07:37:14;;;;;;;23.55;8.80;;;;;;;;;;5073215;28;20299;-73
2023/07/02 07:39:39;;;;;;;21.25;8.07;;;;;;;;;;4371334;28;10000764;-71
2023/07/02 07:42:05;;;;;;;24.05;7.40;;;;;;;;;;5077709;28;20231;-73
2023/07/02 07:44:30;;;;;;;18.38;7.50;;;;;;;;;;5074636;28;20283;-71
2023/07/02 07:46:56;;;;;;;18.98;8.05;;;;;;;;;;5080501;28;20188;-71
2023/07/02 07:49:22;;;;;;;17.13;7.38;;;;;;;;;;5079972;28;20207;-72
2023/07/02 07:51:47;;;;;;;15.90;7.13;;;;;;;;;;5075173;28;20258;-74
2023/07/02 07:54:13;;;;;;;20.20;7.53;;;;;;;;;;5074280;28;20479;-73
2023/07/02 07:56:38;;;;;;;17.85;7.47;;;;;;;;;;5073264;28;20714;-73
2023/07/02 07:59:04;;;;;;;17.25;6.90;;;;;;;;;;5084269;28;20215;-73
2023/07/02 08:01:29;;;;;;;17.98;7.22;;;;;;;;;;5078970;28;20239;-70
2023/07/02 08:03:55;;;;;;;19.77;6.68;;;;;;;;;;5077544;28;20518;-73
2023/07/02 08:06:20;;;;;;;13.85;6.07;;;;;;;;;;5075389;28;20271;-72
2023/07/02 08:08:45;;;;;;;21.40;7.20;;;;;;;;;;5075395;28;20223;-74
2023/07/02 08:11:11;;;;;;;15.13;6.28;;;;;;;;;;5074361;28;20652;-72
2023/07/02 08:13:37;;;;;;;16.10;6.90;;;;;;;;;;5078869;28;20221;-73
2023/07/02 08:16:03;;;;;;;17.58;7.10;;;;;;;;;;5094638;28;20185;-72
2023/07/02 08:18:28;;;;;;;15.43;6.53;;;;;;;;;;5076959;28;20195;-73
2023/07/02 08:20:53;;;;;;;18.73;6.65;;;;;;;;;;4723413;28;10000331;-74
2023/07/02 08:23:19;;;;;;;19.30;6.32;;;;;;;;;;5072400;28;20275;-71
2023/07/02 08:25:44;;;;;;;18.05;6.05;;;;;;;;;;5077286;28;20279;-73
2023/07/02 08:28:09;;;;;;;16.00;5.93;;;;;;;;;;5075487;28;20191;-71
2023/07/02 08:30:35;;;;;;;16.05;6.28;;;;;;;;;;5069848;28;20212;-73
2023/07/02 08:33:01;;;;;;;13.05;6.40;;;;;;;;;;5078751;28;20279;-72
2023/07/02 08:35:26;;;;;;;13.38;5.40;;;;;;;;;;5076345;28;20234;-72
2023/07/02 08:37:51;;;;;;;13.02;5.07;;;;;;;;;;5073008;28;20657;-67
2023/07/02 08:40:20;;;;;;;15.73;5.93;;;;;;;;;;5079503;28;20571;-73
2023/07/02 08:42:49;;;;;;;13.90;5.50;;;;;;;;;;5073405;28;20197;-73
2023/07/02 08:45:18;;;;;;;12.13;4.95;;;;;;;;;;5071382;28;20200;-71
2023/07/02 08:47:45;;;;;;;15.98;5.85;;;;;;;;;;5077781;28;20187;-70
2023/07/02 08:50:12;;;;;;;17.55;6.15;;;;;;;;;;5081491;28;20219;-70
2023/07/02 08:52:37;;;;;;;16.95;6.32;;;;;;;;;;5076679;28;20275;-72
2023/07/02 08:55:03;;;;;;;17.27;6.18;;;;;;;;;;5068716;28;20189;-73
2023/07/02 08:57:28;;;;;;;12.30;5.80;;;;;;;;;;5067392;28;20197;-68
2023/07/02 08:59:54;;;;;;;17.58;6.50;;;;;;;;;;5072963;28;20275;-68
2023/07/02 09:02:30;;;;;;;14.45;5.53;;;;;;;;;;5073414;28;20303;-73
2023/07/02 09:05:02;;;;;;;15.75;5.18;;;;;;;;;;5070473;28;20213;-72
2023/07/02 09:07:27;;;;;;;13.85;5.55;;;;;;;;;;5067972;28;20753;-73
2023/07/02 09:09:54;;;;;;;11.25;5.40;;;;;;;;;;5054035;28;20334;-73
2023/07/02 09:12:22;;;;;;;10.73;4.90;;;;;;;;;;5070601;28;20211;-71
2023/07/02 09:14:54;;;;;;;10.45;5.43;;;;;;;;;;5073626;28;20188;-74
2023/07/02 09:17:19;;;;;;;11.00;5.50;;;;;;;;;;5073463;28;20213;-71
2023/07/02 09:19:51;;;;;;;14.93;5.03;;;;;;;;;;5080123;28;20334;-73
2023/07/02 09:22:16;;;;;;;12.02;4.68;;;;;;;;;;5082966;28;20233;-71
2023/07/02 09:24:50;;;;;;;12.82;5.07;;;;;;;;;;5080662;28;20571;-72
2023/07/02 09:27:15;;;;;;;10.73;4.88;;;;;;;;;;5059588;28;20188;-71
2023/07/02 09:29:41;;;;;;;13.45;5.25;;;;;;;;;;5078512;28;20215;-72
2023/07/02 09:32:07;;;;;;;7.80;4.90;;;;;;;;;;5074334;28;20786;-69
2023/07/02 09:34:37;;;;;;;12.27;5.55;;;;;;;;;;5073685;28;20213;-71
2023/07/02 09:37:05;;;;;;;13.85;5.13;;;;;;;;;;5076969;28;20208;-73
2023/07/02 09:39:32;;;;;;;12.48;5.45;;;;;;;;;;5082720;28;20184;-73
2023/07/02 09:41:59;;;;;;;16.77;5.97;;;;;;;;;;5085879;28;20267;-72
2023/07/02 09:44:29;;;;;;;11.15;5.15;;;;;;;;;;5082850;28;20281;-72
2023/07/02 09:47:05;;;;;;;14.55;5.13;;;;;;;;;;5079093;28;20656;-74
2023/07/02 09:49:34;;;;;;;10.25;4.72;;;;;;;;;;5085422;28;20212;-73
2023/07/02 09:52:02;;;;;;;11.65;5.13;;;;;;;;;;5077834;28;20180;-73
2023/07/02 09:54:28;;;;;;;9.98;4.68;;;;;;;;;;5079757;28;20180;-73
2023/07/02 09:56:55;;;;;;;9.73;4.18;;;;;;;;;;5083152;28;20188;-68
2023/07/02 09:59:20;;;;;;;15.93;4.82;;;;;;;;;;5084277;28;20192;-72
2023/07/02 10:01:45;;;;;;;9.48;4.20;;;;;;;;;;5085356;28;20242;-69
2023/07/02 10:04:15;;;;;;;13.15;4.55;;;;;;;;;;5085420;28;20241;-71
2023/07/02 10:06:54;;;;;;;11.38;4.18;;;;;;;;;;5078596;28;20666;-72
2023/07/02 10:09:21;;;;;;;9.55;4.57;;;;;;;;;;5079177;28;20295;-70
2023/07/02 10:11:47;;;;;;;8.43;4.13;;;;;;;;;;5082516;28;20188;-72
2023/07/02 10:14:13;;;;;;;9.60;4.10;;;;;;;;;;5079852;28;20191;-70
2023/07/02 10:16:56;;;;;;;9.25;3.90;;;;;;;;;;5086706;28;20207;-70
2023/07/02 10:19:21;;;;;;;7.50;4.13;;;;;;;;;;5083929;28;20200;-69
2023/07/02 10:22:01;;;;;;;10.10;4.10;;;;;;;;;;5082065;28;20188;-70
2023/07/02 10:24:27;;;;;;;7.90;3.85;;;;;;;;;;5076515;28;20540;-73
2023/07/02 10:26:55;;;;;;;9.00;3.58;;;;;;;;;;5065515;28;20185;-73
2023/07/02 10:29:22;;;;;;;10.32;4.30;;;;;;;;;;5077699;28;20555;-72
2023/07/02 10:31:52;;;;;;;11.75;4.60;;;;;;;;;;5082672;28;20198;-69
2023/07/02 10:34:34;;;;;;;11.38;4.78;;;;;;;;;;5087958;28;20215;-71
2023/07/02 10:37:01;;;;;;;9.82;4.95;;;;;;;;;;5083466;28;20187;-72
2023/07/02 10:39:29;;;;;;;8.13;3.95;;;;;;;;;;5077550;28;20234;-74
2023/07/02 10:42:03;;;;;;;11.75;5.28;;;;;;;;;;5068148;28;20286;-74
2023/07/02 10:44:29;;;;;;;14.00;4.60;;;;;;;;;;5078883;28;20229;-73
2023/07/02 10:46:55;;;;;;;11.38;4.20;;;;;;;;;;5078603;28;20200;-69
2023/07/02 10:49:29;;;;;;;11.63;5.28;;;;;;;;;;5072481;28;20213;-72
2023/07/02 10:52:03;;;;;;;12.05;4.38;;;;;;;;;;5084507;28;20488;-71
2023/07/02 10:54:48;;;;;;;10.15;5.00;;;;;;;;;;5083509;28;20241;-70
2023/07/02 10:57:16;;;;;;;8.05;4.10;;;;;;;;;;5075694;28;20192;-72
2023/07/02 10:59:41;;;;;;;12.23;4.97;;;;;;;;;;5079570;28;20196;-73
2023/07/02 11:02:09;;;;;;;10.75;4.68;;;;;;;;;;5073084;28;20454;-73
2023/07/02 11:04:36;;;;;;;8.73;4.57;;;;;;;;;;5072296;28;20707;-74
2023/07/02 11:07:01;;;;;;;10.70;4.68;;;;;;;;;;5082484;28;20635;-70
2023/07/02 11:09:27;;;;;;;11.20;4.18;;;;;;;;;;5077640;28;20200;-75
2023/07/02 11:11:57;;;;;;;9.80;4.45;;;;;;;;;;5081505;28;20310;-72
2023/07/02 11:14:34;;;;;;;13.10;4.38;;;;;;;;;;5082911;28;20237;-74
2023/07/02 11:17:05;;;;;;;9.05;4.50;;;;;;;;;;5079473;28;20263;-74
2023/07/02 11:19:30;;;;;;;7.05;3.40;;;;;;;;;;5086113;28;20655;-71
2023/07/02 11:21:57;;;;;;;9.68;3.70;;;;;;;;;;5074489;28;20310;-73
2023/07/02 11:24:32;;;;;;;11.15;3.75;;;;;;;;;;5036516;28;20228;-73
2023/07/02 11:26:59;;;;;;;9.88;4.00;;;;;;;;;;5081221;28;20374;-70
2023/07/02 11:29:24;;;;;;;7.03;3.70;;;;;;;;;;5078320;28;20581;-74
2023/07/02 11:31:50;;;;;;;10.48;4.03;;;;;;;;;;5075679;28;20196;-74
2023/07/02 11:34:17;;;;;;;10.30;3.80;;;;;;;;;;5068671;28;20188;-76
2023/07/02 11:36:43;;;;;;;9.10;3.15;;;;;;;;;;5085103;28;20204;-75
2023/07/02 11:39:08;;;;;;;7.97;3.70;;;;;;;;;;5085026;28;20184;-70
2023/07/02 11:41:41;;;;;;;8.07;3.95;;;;;;;;;;5085059;28;20227;-74
2023/07/02 11:44:07;;;;;;;8.38;3.83;;;;;;;;;;5082234;28;20188;-73
2023/07/02 11:46:33;;;;;;;10.02;3.65;;;;;;;;;;5083221;28;20666;-75
2023/07/02 11:49:00;;;;;;;8.32;4.07;;;;;;;;;;5074814;28;20227;-70
2023/07/02 11:51:25;;;;;;;10.18;3.97;;;;;;;;;;5074231;28;20189;-74
2023/07/02 11:53:51;;;;;;;10.57;3.67;;;;;;;;;;5078212;28;20204;-72
2023/07/02 11:56:16;;;;;;;8.70;3.65;;;;;;;;;;5071761;28;20184;-74
2023/07/02 11:58:42;;;;;;;5.18;2.90;;;;;;;;;;5076321;28;20207;-74
2023/07/02 12:01:08;;;;;;;7.88;2.97;;;;;;;;;;5070141;28;20215;-73
2023/07/02 12:03:33;;;;;;;7.38;3.20;;;;;;;;;;5079181;28;20663;-76
2023/07/02 12:05:58;;;;;;;5.30;2.60;;;;;;;;;;5081086;28;20196;-74
2023/07/02 12:08:24;;;;;;;6.68;2.83;;;;;;;;;;5075405;28;20196;-72
2023/07/02 12:10:49;;;;;;;6.93;3.25;;;;;;;;;;5078123;28;20582;-73
2023/07/02 12:13:15;;;;;;;8.52;2.40;;;;;;;;;;5077122;28;20282;-74
2023/07/02 12:15:40;;;;;;;8.68;2.95;;;;;;;;;;5071305;28;20272;-73
2023/07/02 12:18:06;;;;;;;7.00;3.30;;;;;;;;;;5081491;28;20192;-72
2023/07/02 12:20:31;;;;;;;5.97;2.83;;;;;;;;;;5073788;28;20237;-72
2023/07/02 12:22:57;;;;;;;6.10;2.70;;;;;;;;;;5073146;28;20188;-74
2023/07/02 12:25:22;;;;;;;6.38;2.70;;;;;;;;;;5078082;28;20192;-73
2023/07/02 12:27:48;;;;;;;6.80;2.58;;;;;;;;;;5071847;28;20724;-73
2023/07/02 12:30:17;;;;;;;8.35;2.53;;;;;;;;;;5084769;28;20749;-71
2023/07/02 12:32:43;;;;;;;5.88;2.70;;;;;;;;;;5078093;28;20197;-74
2023/07/02 12:35:08;;;;;;;5.13;3.10;;;;;;;;;;5077989;28;20230;-68
2023/07/02 12:37:34;;;;;;;6.25;2.90;;;;;;;;;;5075922;28;20216;-75
2023/07/02 12:40:00;;;;;;;5.25;2.60;;;;;;;;;;5067278;28;20246;-69
2023/07/02 12:42:25;;;;;;;5.72;3.25;;;;;;;;;;5082718;28;20294;-69
2023/07/02 12:44:50;;;;;;;8.52;3.10;;;;;;;;;;5071825;28;20184;-74
2023/07/02 12:47:16;;;;;;;7.35;3.38;;;;;;;;;;5077497;28;20193;-71
2023/07/02 12:49:41;;;;;;;4.85;2.72;;;;;;;;;;5081086;28;20652;-74
2023/07/02 12:52:07;;;;;;;4.18;2.63;;;;;;;;;;5079596;28;20184;-71
2023/07/02 12:54:33;;;;;;;7.05;3.10;;;;;;;;;;5070006;28;20197;-73
2023/07/02 12:56:58;;;;;;;6.75;3.13;;;;;;;;;;5077682;28;20281;-72
2023/07/02 12:59:24;;;;;;;6.70;3.58;;;;;;;;;;5072283;28;20188;-73
2023/07/02 13:01:49;;;;;;;6.65;3.00;;;;;;;;;;5059323;28;20710;-71
2023/07/02 13:04:15;;;;;;;6.07;3.28;;;;;;;;;;5071647;28;20185;-73
2023/07/02 13:06:41;;;;;;;7.47;3.10;;;;;;;;;;5078289;28;20451;-74
2023/07/02 13:09:07;;;;;;;8.32;3.25;;;;;;;;;;5079337;28;20212;-73
2023/07/02 13:11:33;;;;;;;10.57;3.40;;;;;;;;;;5085535;28;20203;-72
2023/07/02 13:13:58;;;;;;;7.68;3.40;;;;;;;;;;5073814;28;20192;-75
2023/07/02 13:16:24;;;;;;;5.63;3.10;;;;;;;;;;5075145;28;20189;-76
2023/07/02 13:18:49;;;;;;;8.23;3.28;;;;;;;;;;5078636;28;20827;-72
2023/07/02 13:21:15;;;;;;;6.30;3.28;;;;;;;;;;5076905;28;20392;-74
2023/07/02 13:23:40;;;;;;;7.88;3.47;;;;;;;;;;5078845;28;20223;-73
2023/07/02 13:26:06;;;;;;;7.25;3.17;;;;;;;;;;5077313;28;20184;-75
2023/07/02 13:28:31;;;;;;;9.63;3.53;;;;;;;;;;5077144;28;20200;-76
2023/07/02 13:30:56;;;;;;;9.93;3.58;;;;;;;;;;5076078;28;20650;-73
2023/07/02 13:33:22;;;;;;;6.82;3.80;;;;;;;;;;5079577;28;20193;-73
2023/07/02 13:35:47;;;;;;;9.55;3.90;;;;;;;;;;5070660;28;20224;-74
2023/07/02 13:38:13;;;;;;;9.63;3.53;;;;;;;;;;5079227;28;20189;-73
2023/07/02 13:40:38;;;;;;;9.55;3.75;;;;;;;;;;5072914;28;20216;-71
2023/07/02 13:43:04;;;;;;;6.95;3.53;;;;;;;;;;5081421;28;20267;-73
2023/07/02 13:45:29;;;;;;;7.70;3.72;;;;;;;;;;5072081;28;20192;-75
2023/07/02 13:47:54;;;;;;;9.73;4.13;;;;;;;;;;5081632;28;20196;-71
2023/07/02 13:50:20;;;;;;;8.70;3.72;;;;;;;;;;5080281;28;20200;-73
2023/07/02 13:52:46;;;;;;;7.93;4.05;;;;;;;;;;5083031;28;20271;-74
2023/07/02 13:55:12;;;;;;;7.57;4.88;;;;;;;;;;5076929;28;20656;-74
2023/07/02 13:57:37;;;;;;;8.50;4.00;;;;;;;;;;5079412;28;20291;-70
2023/07/02 14:00:04;;;;;;;7.65;3.45;;;;;;;;;;5083066;28;20192;-72
2023/07/02 14:02:31;;;;;;;8.38;4.25;;;;;;;;;;5080197;28;20214;-72
2023/07/02 14:04:57;;;;;;;8.93;4.20;;;;;;;;;;5078796;28;20224;-73
2023/07/02 14:07:23;;;;;;;8.90;4.60;;;;;;;;;;5075325;28;20189;-73
2023/07/02 14:09:49;;;;;;;8.32;4.03;;;;;;;;;;5075495;28;20209;-71
2023/07/02 14:12:14;;;;;;;7.47;4.00;;;;;;;;;;5071518;28;20237;-72
2023/07/02 14:14:40;;;;;;;8.13;3.63;;;;;;;;;;5068888;28;20192;-68
2023/07/02 14:17:05;;;;;;;6.82;3.70;;;;;;;;;;5084658;28;20196;-70
2023/07/02 14:19:30;;;;;;;6.93;4.03;;;;;;;;;;5078344;28;20610;-75
2023/07/02 14:21:56;;;;;;;9.38;4.35;;;;;;;;;;5073150;28;20184;-74
2023/07/02 14:24:22;;;;;;;12.18;4.47;;;;;;;;;;5077169;28;20636;-72
2023/07/02 14:26:47;;;;;;;8.10;3.92;;;;;;;;;;5078474;28;20189;-75
2023/07/02 14:29:12;;;;;;;8.55;3.92;;;;;;;;;;5082271;28;20265;-74
2023/07/02 14:31:38;;;;;;;10.38;3.88;;;;;;;;;;5071850;28;20720;-72